sensor_id;sensor_type;location;lat;lon;timestamp;pressure;altitude;pressure_sealevel;temperature;humidity
13314;BME280;6725;48.112;11.604;2022-08-14T00:00:20;94986.13;;;17.08;100.00
13314;BME280;6725;48.112;11.604;2022-08-14T00:02:46;94987.66;;;17.09;100.00
13314;BME280;6725;48.112;11.604;2022-08-14T00:05:16;94991.78;;;17.04;100.00
13314;BME280;6725;48.112;11.604;2022-08-14T00:07:42;94983.31;;;16.99;100.00
13314;BME280;6725;48.112;11.604;2022-08-14T00:10:11;94977.97;;;16.95;100.00
13314;BME280;6725;48.112;11.604;2022-08-14T00:12:42;94971.81;;;16.91;100.00
13314;BME280;6725;48.112;11.604;2022-08-14T00:15:29;94969.50;;;16.90;100.00
13314;BME280;6725;48.112;11.604;2022-08-14T00:17:56;94959.06;;;16.85;100.00
13314;BME280;6725;48.112;11.604;2022-08-14T00:20:25;94968.25;;;16.82;100.00
13314;BME280;6725;48.112;11.604;2022-08-14T00:22:52;94964.38;;;16.79;100.00
13314;BME280;6725;48.112;11.604;2022-08-14T00:25:18;94956.28;;;16.76;100.00
13314;BME280;6725;48.112;11.604;2022-08-14T00:27:44;94955.94;;;16.74;100.00
13314;BME280;6725;48.112;11.604;2022-08-14T00:30:11;94947.03;;;16.70;100.00
13314;BME280;6725;48.112;11.604;2022-08-14T00:32:37;94939.69;;;16.67;100.00
13314;BME280;6725;48.112;11.604;2022-08-14T00:35:05;94935.97;;;16.61;100.00
13314;BME280;6725;48.112;11.604;2022-08-14T00:37:31;94934.72;;;16.53;100.00
13314;BME280;6725;48.112;11.604;2022-08-14T00:39:57;94933.16;;;16.52;100.00
13314;BME280;6725;48.112;11.604;2022-08-14T00:42:23;94933.00;;;16.46;100.00
13314;BME280;6725;48.112;11.604;2022-08-14T00:44:49;94926.84;;;16.42;100.00
13314;BME280;6725;48.112;11.604;2022-08-14T00:47:16;94925.09;;;16.35;100.00
13314;BME280;6725;48.112;11.604;2022-08-14T00:49:42;94919.16;;;16.37;100.00
13314;BME280;6725;48.112;11.604;2022-08-14T00:52:08;94933.19;;;16.30;100.00
13314;BME280;6725;48.112;11.604;2022-08-14T00:54:34;94909.16;;;16.30;100.00
13314;BME280;6725;48.112;11.604;2022-08-14T00:57:02;94919.09;;;16.28;100.00
13314;BME280;6725;48.112;11.604;2022-08-14T00:59:28;94909.25;;;16.18;100.00
13314;BME280;6725;48.112;11.604;2022-08-14T01:01:56;94893.44;;;16.09;100.00
13314;BME280;6725;48.112;11.604;2022-08-14T01:04:22;94886.66;;;16.01;100.00
13314;BME280;6725;48.112;11.604;2022-08-14T01:06:50;94872.88;;;16.01;100.00
13314;BME280;6725;48.112;11.604;2022-08-14T01:09:19;94872.25;;;15.97;100.00
13314;BME280;6725;48.112;11.604;2022-08-14T01:11:49;94873.16;;;15.94;100.00
13314;BME280;6725;48.112;11.604;2022-08-14T01:14:15;94871.88;;;15.86;100.00
13314;BME280;6725;48.112;11.604;2022-08-14T01:16:41;94854.84;;;15.79;100.00
13314;BME280;6725;48.112;11.604;2022-08-14T01:19:07;94850.84;;;15.80;100.00
13314;BME280;6725;48.112;11.604;2022-08-14T01:21:51;94854.97;;;15.75;100.00
13314;BME280;6725;48.112;11.604;2022-08-14T01:24:17;94864.44;;;15.74;100.00
13314;BME280;6725;48.112;11.604;2022-08-14T01:26:42;94852.47;;;15.68;100.00
13314;BME280;6725;48.112;11.604;2022-08-14T01:29:08;94849.72;;;15.68;100.00
13314;BME280;6725;48.112;11.604;2022-08-14T01:31:36;94847.63;;;15.72;100.00
13314;BME280;6725;48.112;11.604;2022-08-14T01:34:08;94851.88;;;15.73;100.00
13314;BME280;6725;48.112;11.604;2022-08-14T01:36:34;94849.72;;;15.68;100.00
13314;BME280;6725;48.112;11.604;2022-08-14T01:39:11;94841.13;;;15.66;100.00
13314;BME280;6725;48.112;11.604;2022-08-14T01:41:38;94825.41;;;15.67;100.00
13314;BME280;6725;48.112;11.604;2022-08-14T01:44:09;94821.56;;;15.64;100.00
13314;BME280;6725;48.112;11.604;2022-08-14T01:46:39;94817.59;;;15.65;100.00
13314;BME280;6725;48.112;11.604;2022-08-14T01:49:10;94827.06;;;15.64;100.00
13314;BME280;6725;48.112;11.604;2022-08-14T01:51:37;94810.56;;;15.64;100.00
13314;BME280;6725;48.112;11.604;2022-08-14T01:54:16;94803.50;;;15.63;100.00
13314;BME280;6725;48.112;11.604;2022-08-14T01:56:50;94795.03;;;15.58;100.00
13314;BME280;6725;48.112;11.604;2022-08-14T02:01:41;94784.44;;;15.47;100.00
13314;BME280;6725;48.112;11.604;2022-08-14T02:04:08;94775.56;;;15.43;100.00
13314;BME280;6725;48.112;11.604;2022-08-14T02:06:34;94774.31;;;15.44;100.00
13314;BME280;6725;48.112;11.604;2022-08-14T02:09:06;94782.31;;;15.30;100.00
13314;BME280;6725;48.112;11.604;2022-08-14T02:11:31;94779.69;;;15.26;100.00
13314;BME280;6725;48.112;11.604;2022-08-14T02:14:01;94775.69;;;15.27;100.00
13314;BME280;6725;48.112;11.604;2022-08-14T02:16:30;94778.16;;;15.25;100.00
13314;BME280;6725;48.112;11.604;2022-08-14T02:19:00;94776.72;;;15.21;100.00
13314;BME280;6725;48.112;11.604;2022-08-14T02:21:28;94777.88;;;15.11;100.00
13314;BME280;6725;48.112;11.604;2022-08-14T02:23:58;94775.84;;;15.02;100.00
13314;BME280;6725;48.112;11.604;2022-08-14T02:26:27;94769.44;;;15.05;100.00
13314;BME280;6725;48.112;11.604;2022-08-14T02:28:56;94772.50;;;15.07;100.00
13314;BME280;6725;48.112;11.604;2022-08-14T02:31:25;94773.16;;;15.11;100.00
13314;BME280;6725;48.112;11.604;2022-08-14T02:33:54;94768.44;;;15.12;100.00
13314;BME280;6725;48.112;11.604;2022-08-14T02:36:19;94779.88;;;15.10;100.00
13314;BME280;6725;48.112;11.604;2022-08-14T02:38:44;94776.47;;;15.06;100.00
13314;BME280;6725;48.112;11.604;2022-08-14T02:41:11;94779.78;;;15.01;100.00
13314;BME280;6725;48.112;11.604;2022-08-14T02:43:37;94768.16;;;14.97;100.00
13314;BME280;6725;48.112;11.604;2022-08-14T02:46:05;94755.63;;;14.96;100.00
13314;BME280;6725;48.112;11.604;2022-08-14T02:48:34;94765.72;;;14.99;100.00
13314;BME280;6725;48.112;11.604;2022-08-14T02:51:01;94750.75;;;15.00;100.00
13314;BME280;6725;48.112;11.604;2022-08-14T02:53:28;94741.69;;;14.91;100.00
13314;BME280;6725;48.112;11.604;2022-08-14T02:55:54;94734.66;;;14.90;100.00
13314;BME280;6725;48.112;11.604;2022-08-14T02:58:21;94731.38;;;14.82;100.00
13314;BME280;6725;48.112;11.604;2022-08-14T03:00:48;94727.34;;;14.74;100.00
13314;BME280;6725;48.112;11.604;2022-08-14T03:03:13;94719.03;;;14.65;100.00
13314;BME280;6725;48.112;11.604;2022-08-14T03:05:40;94709.81;;;14.59;100.00
13314;BME280;6725;48.112;11.604;2022-08-14T03:08:11;94694.38;;;14.40;100.00
13314;BME280;6725;48.112;11.604;2022-08-14T03:10:37;94680.75;;;14.37;100.00
13314;BME280;6725;48.112;11.604;2022-08-14T03:13:03;94683.31;;;14.31;100.00
13314;BME280;6725;48.112;11.604;2022-08-14T03:15:32;94670.59;;;14.25;100.00
13314;BME280;6725;48.112;11.604;2022-08-14T03:18:11;94668.63;;;14.25;100.00
13314;BME280;6725;48.112;11.604;2022-08-14T03:20:37;94655.97;;;14.15;100.00
13314;BME280;6725;48.112;11.604;2022-08-14T03:23:03;94652.34;;;14.18;100.00
13314;BME280;6725;48.112;11.604;2022-08-14T03:25:29;94648.38;;;14.19;100.00
13314;BME280;6725;48.112;11.604;2022-08-14T03:28:01;94652.13;;;14.25;100.00
13314;BME280;6725;48.112;11.604;2022-08-14T03:30:28;94656.72;;;14.28;100.00
13314;BME280;6725;48.112;11.604;2022-08-14T03:32:55;94666.19;;;14.27;100.00
13314;BME280;6725;48.112;11.604;2022-08-14T03:35:22;94662.09;;;14.32;100.00
13314;BME280;6725;48.112;11.604;2022-08-14T03:37:47;94656.81;;;14.37;100.00
13314;BME280;6725;48.112;11.604;2022-08-14T03:40:12;94661.97;;;14.35;100.00
13314;BME280;6725;48.112;11.604;2022-08-14T03:42:38;94664.06;;;14.31;100.00
13314;BME280;6725;48.112;11.604;2022-08-14T03:45:04;94665.44;;;14.27;100.00
13314;BME280;6725;48.112;11.604;2022-08-14T03:47:33;94650.47;;;14.28;100.00
13314;BME280;6725;48.112;11.604;2022-08-14T03:50:01;94657.50;;;14.29;100.00
13314;BME280;6725;48.112;11.604;2022-08-14T03:52:26;94663.22;;;14.22;100.00
13314;BME280;6725;48.112;11.604;2022-08-14T03:54:52;94664.00;;;14.22;100.00
13314;BME280;6725;48.112;11.604;2022-08-14T03:57:17;94668.94;;;14.27;100.00
13314;BME280;6725;48.112;11.604;2022-08-14T03:59:42;94670.78;;;14.30;100.00
13314;BME280;6725;48.112;11.604;2022-08-14T04:02:08;94657.38;;;14.32;100.00
13314;BME280;6725;48.112;11.604;2022-08-14T04:04:33;94657.38;;;14.32;100.00
13314;BME280;6725;48.112;11.604;2022-08-14T04:06:59;94660.44;;;14.34;100.00
13314;BME280;6725;48.112;11.604;2022-08-14T04:09:25;94661.47;;;14.28;100.00
13314;BME280;6725;48.112;11.604;2022-08-14T04:11:51;94658.38;;;14.26;100.00
13314;BME280;6725;48.112;11.604;2022-08-14T04:14:16;94651.47;;;14.21;100.00
13314;BME280;6725;48.112;11.604;2022-08-14T04:16:41;94658.56;;;14.31;100.00
13314;BME280;6725;48.112;11.604;2022-08-14T04:19:10;94661.09;;;14.38;100.00
13314;BME280;6725;48.112;11.604;2022-08-14T04:21:35;94672.72;;;14.42;100.00
13314;BME280;6725;48.112;11.604;2022-08-14T04:24:01;94678.31;;;14.51;100.00
13314;BME280;6725;48.112;11.604;2022-08-14T04:26:28;94678.38;;;14.60;100.00
13314;BME280;6725;48.112;11.604;2022-08-14T04:28:55;94690.00;;;14.64;100.00
13314;BME280;6725;48.112;11.604;2022-08-14T04:31:22;94698.88;;;14.68;100.00
13314;BME280;6725;48.112;11.604;2022-08-14T04:33:48;94708.16;;;14.62;100.00
13314;BME280;6725;48.112;11.604;2022-08-14T04:36:13;94707.50;;;14.58;100.00
13314;BME280;6725;48.112;11.604;2022-08-14T04:38:39;94700.09;;;14.67;100.00
13314;BME280;6725;48.112;11.604;2022-08-14T04:41:23;94699.03;;;14.86;100.00
13314;BME280;6725;48.112;11.604;2022-08-14T04:44:06;94704.09;;;15.09;100.00
13314;BME280;6725;48.112;11.604;2022-08-14T04:46:34;94717.00;;;15.21;100.00
13314;BME280;6725;48.112;11.604;2022-08-14T04:48:59;94715.06;;;15.31;100.00
13314;BME280;6725;48.112;11.604;2022-08-14T04:51:26;94720.81;;;15.45;100.00
13314;BME280;6725;48.112;11.604;2022-08-14T04:53:53;94731.91;;;15.63;100.00
13314;BME280;6725;48.112;11.604;2022-08-14T04:56:22;94729.78;;;15.98;100.00
13314;BME280;6725;48.112;11.604;2022-08-14T04:58:49;94745.50;;;16.37;100.00
13314;BME280;6725;48.112;11.604;2022-08-14T05:01:14;94767.53;;;16.86;100.00
13314;BME280;6725;48.112;11.604;2022-08-14T05:03:41;94781.00;;;17.47;100.00
13314;BME280;6725;48.112;11.604;2022-08-14T05:06:08;94797.41;;;18.19;100.00
13314;BME280;6725;48.112;11.604;2022-08-14T05:08:35;94809.38;;;18.66;100.00
13314;BME280;6725;48.112;11.604;2022-08-14T05:11:02;94802.41;;;19.18;100.00
13314;BME280;6725;48.112;11.604;2022-08-14T05:13:30;94810.84;;;19.76;100.00
13314;BME280;6725;48.112;11.604;2022-08-14T05:15:57;94808.59;;;20.18;100.00
13314;BME280;6725;48.112;11.604;2022-08-14T05:18:29;94810.50;;;20.41;100.00
13314;BME280;6725;48.112;11.604;2022-08-14T05:20:57;94818.06;;;20.75;100.00
13314;BME280;6725;48.112;11.604;2022-08-14T05:23:31;94825.16;;;21.31;98.82
13314;BME280;6725;48.112;11.604;2022-08-14T05:25:59;94828.81;;;21.42;97.26
13314;BME280;6725;48.112;11.604;2022-08-14T05:28:30;94813.81;;;21.54;94.67
13314;BME280;6725;48.112;11.604;2022-08-14T05:30:58;94823.03;;;22.11;90.29
13314;BME280;6725;48.112;11.604;2022-08-14T05:33:26;94828.97;;;22.50;87.11
13314;BME280;6725;48.112;11.604;2022-08-14T05:35:53;94829.84;;;22.67;85.24
13314;BME280;6725;48.112;11.604;2022-08-14T05:38:28;94828.78;;;23.38;82.00
13314;BME280;6725;48.112;11.604;2022-08-14T05:40:54;94833.47;;;23.63;80.19
13314;BME280;6725;48.112;11.604;2022-08-14T05:43:21;94824.94;;;23.94;78.81
13314;BME280;6725;48.112;11.604;2022-08-14T05:45:46;94831.38;;;24.27;77.72
13314;BME280;6725;48.112;11.604;2022-08-14T05:48:13;94828.09;;;24.45;76.27
13314;BME280;6725;48.112;11.604;2022-08-14T05:50:40;94835.44;;;24.65;75.19
13314;BME280;6725;48.112;11.604;2022-08-14T05:53:05;94839.25;;;25.06;72.76
13314;BME280;6725;48.112;11.604;2022-08-14T05:55:31;94839.72;;;25.32;70.15
13314;BME280;6725;48.112;11.604;2022-08-14T05:57:59;94842.91;;;26.15;66.92
13314;BME280;6725;48.112;11.604;2022-08-14T06:00:28;94839.59;;;26.17;66.77
13314;BME280;6725;48.112;11.604;2022-08-14T06:02:54;94834.63;;;26.39;66.42
13314;BME280;6725;48.112;11.604;2022-08-14T06:05:23;94844.09;;;26.71;63.69
13314;BME280;6725;48.112;11.604;2022-08-14T06:07:49;94835.06;;;26.84;61.69
13314;BME280;6725;48.112;11.604;2022-08-14T06:10:15;94839.59;;;27.16;59.24
13314;BME280;6725;48.112;11.604;2022-08-14T06:12:41;94849.94;;;26.38;64.60
13314;BME280;6725;48.112;11.604;2022-08-14T06:15:07;94841.50;;;27.32;60.22
13314;BME280;6725;48.112;11.604;2022-08-14T06:17:48;94838.75;;;27.51;57.33
13314;BME280;6725;48.112;11.604;2022-08-14T06:20:14;94842.66;;;27.66;57.38
13314;BME280;6725;48.112;11.604;2022-08-14T06:22:41;94837.84;;;27.85;54.75
13314;BME280;6725;48.112;11.604;2022-08-14T06:25:08;94832.09;;;27.96;55.02
13314;BME280;6725;48.112;11.604;2022-08-14T06:27:45;94843.44;;;28.47;53.35
13314;BME280;6725;48.112;11.604;2022-08-14T06:30:15;94842.47;;;28.76;51.20
13314;BME280;6725;48.112;11.604;2022-08-14T06:32:42;94838.78;;;29.12;51.32
13314;BME280;6725;48.112;11.604;2022-08-14T06:35:08;94842.09;;;29.29;49.15
13314;BME280;6725;48.112;11.604;2022-08-14T06:37:59;94847.59;;;29.48;48.85
13314;BME280;6725;48.112;11.604;2022-08-14T06:40:27;94849.69;;;29.86;47.33
13314;BME280;6725;48.112;11.604;2022-08-14T06:42:57;94843.81;;;29.97;47.04
13314;BME280;6725;48.112;11.604;2022-08-14T06:45:23;94831.69;;;30.49;44.01
13314;BME280;6725;48.112;11.604;2022-08-14T06:47:48;94833.41;;;31.06;42.88
13314;BME280;6725;48.112;11.604;2022-08-14T06:50:19;94824.81;;;30.70;44.13
13314;BME280;6725;48.112;11.604;2022-08-14T06:52:46;94825.78;;;30.39;45.59
13314;BME280;6725;48.112;11.604;2022-08-14T06:55:13;94831.22;;;31.33;43.48
13314;BME280;6725;48.112;11.604;2022-08-14T06:57:44;94831.41;;;31.63;42.07
13314;BME280;6725;48.112;11.604;2022-08-14T07:00:22;94825.63;;;31.96;41.08
13314;BME280;6725;48.112;11.604;2022-08-14T07:02:48;94834.63;;;32.30;39.73
13314;BME280;6725;48.112;11.604;2022-08-14T07:05:32;94821.50;;;32.05;39.21
13314;BME280;6725;48.112;11.604;2022-08-14T07:10:49;94813.88;;;33.68;37.28
13314;BME280;6725;48.112;11.604;2022-08-14T07:13:16;94806.94;;;33.39;35.99
13314;BME280;6725;48.112;11.604;2022-08-14T07:15:46;94815.59;;;33.11;35.98
13314;BME280;6725;48.112;11.604;2022-08-14T07:18:13;94812.19;;;31.89;39.10
13314;BME280;6725;48.112;11.604;2022-08-14T07:20:39;94797.66;;;32.94;37.60
13314;BME280;6725;48.112;11.604;2022-08-14T07:23:06;94799.53;;;33.66;35.13
13314;BME280;6725;48.112;11.604;2022-08-14T07:25:32;94800.19;;;31.96;38.57
13314;BME280;6725;48.112;11.604;2022-08-14T07:27:57;94797.13;;;31.87;39.15
13314;BME280;6725;48.112;11.604;2022-08-14T07:30:23;94791.72;;;32.62;37.90
13314;BME280;6725;48.112;11.604;2022-08-14T07:32:49;94785.31;;;33.89;36.14
13314;BME280;6725;48.112;11.604;2022-08-14T07:35:14;94785.34;;;31.19;39.83
13314;BME280;6725;48.112;11.604;2022-08-14T07:37:40;94779.00;;;31.82;38.49
13314;BME280;6725;48.112;11.604;2022-08-14T07:40:06;94782.72;;;31.77;37.10
13314;BME280;6725;48.112;11.604;2022-08-14T07:42:32;94766.91;;;33.05;36.76
13314;BME280;6725;48.112;11.604;2022-08-14T07:44:58;94767.66;;;32.83;37.20
13314;BME280;6725;48.112;11.604;2022-08-14T07:47:24;94770.22;;;34.34;34.27
13314;BME280;6725;48.112;11.604;2022-08-14T07:49:59;94768.25;;;32.24;36.85
13314;BME280;6725;48.112;11.604;2022-08-14T07:52:25;94776.22;;;31.05;39.86
13314;BME280;6725;48.112;11.604;2022-08-14T07:54:51;94764.81;;;32.18;37.01
13314;BME280;6725;48.112;11.604;2022-08-14T07:57:18;94747.84;;;33.13;36.10
13314;BME280;6725;48.112;11.604;2022-08-14T07:59:45;94753.69;;;33.00;35.57
13314;BME280;6725;48.112;11.604;2022-08-14T08:02:13;94751.69;;;33.86;34.12
13314;BME280;6725;48.112;11.604;2022-08-14T08:04:43;94751.06;;;35.23;31.91
13314;BME280;6725;48.112;11.604;2022-08-14T08:07:09;94760.25;;;32.80;33.83
13314;BME280;6725;48.112;11.604;2022-08-14T08:09:35;94752.47;;;34.90;32.15
13314;BME280;6725;48.112;11.604;2022-08-14T08:12:02;94755.44;;;33.96;32.56
13314;BME280;6725;48.112;11.604;2022-08-14T08:14:29;94756.69;;;33.47;32.91
13314;BME280;6725;48.112;11.604;2022-08-14T08:16:56;94754.25;;;33.06;34.67
13314;BME280;6725;48.112;11.604;2022-08-14T08:19:21;94743.25;;;35.31;31.23
13314;BME280;6725;48.112;11.604;2022-08-14T08:21:50;94753.72;;;34.40;32.75
13314;BME280;6725;48.112;11.604;2022-08-14T08:24:18;94748.59;;;35.02;32.13
13314;BME280;6725;48.112;11.604;2022-08-14T08:26:44;94750.06;;;34.79;31.93
13314;BME280;6725;48.112;11.604;2022-08-14T08:29:18;94759.22;;;33.91;32.24
13314;BME280;6725;48.112;11.604;2022-08-14T08:31:48;94750.19;;;34.64;31.65
13314;BME280;6725;48.112;11.604;2022-08-14T08:34:15;94765.78;;;33.38;33.04
13314;BME280;6725;48.112;11.604;2022-08-14T08:36:41;94776.25;;;33.75;32.68
13314;BME280;6725;48.112;11.604;2022-08-14T08:39:07;94771.38;;;32.63;33.95
13314;BME280;6725;48.112;11.604;2022-08-14T08:44:04;94755.59;;;33.05;33.42
13314;BME280;6725;48.112;11.604;2022-08-14T08:46:30;94765.53;;;32.61;33.87
13314;BME280;6725;48.112;11.604;2022-08-14T08:48:55;94758.44;;;32.17;35.21
13314;BME280;6725;48.112;11.604;2022-08-14T08:51:32;94754.25;;;33.36;33.93
13314;BME280;6725;48.112;11.604;2022-08-14T08:54:12;94741.63;;;32.85;33.92
13314;BME280;6725;48.112;11.604;2022-08-14T08:59:17;94755.09;;;32.34;34.76
13314;BME280;6725;48.112;11.604;2022-08-14T09:01:56;94742.88;;;32.69;34.88
13314;BME280;6725;48.112;11.604;2022-08-14T09:04:29;94743.91;;;32.13;35.36
13314;BME280;6725;48.112;11.604;2022-08-14T09:06:58;94754.78;;;32.60;34.79
13314;BME280;6725;48.112;11.604;2022-08-14T09:09:27;94729.13;;;33.25;34.11
13314;BME280;6725;48.112;11.604;2022-08-14T09:11:54;94746.47;;;32.54;34.63
13314;BME280;6725;48.112;11.604;2022-08-14T09:14:25;94744.28;;;33.98;32.29
13314;BME280;6725;48.112;11.604;2022-08-14T09:16:52;94738.94;;;34.49;31.65
13314;BME280;6725;48.112;11.604;2022-08-14T09:19:18;94737.41;;;33.53;33.36
13314;BME280;6725;48.112;11.604;2022-08-14T09:21:44;94722.16;;;33.34;34.07
13314;BME280;6725;48.112;11.604;2022-08-14T09:24:11;94729.00;;;33.78;33.19
13314;BME280;6725;48.112;11.604;2022-08-14T09:26:37;94716.69;;;32.68;34.63
13314;BME280;6725;48.112;11.604;2022-08-14T09:29:04;94728.00;;;33.13;34.62
13314;BME280;6725;48.112;11.604;2022-08-14T09:31:32;94728.75;;;33.21;34.08
13314;BME280;6725;48.112;11.604;2022-08-14T09:34:17;94738.69;;;32.32;34.84
13314;BME280;6725;48.112;11.604;2022-08-14T09:42:22;94738.56;;;32.60;34.84
13314;BME280;6725;48.112;11.604;2022-08-14T09:45:02;94720.06;;;32.82;35.34
13314;BME280;6725;48.112;11.604;2022-08-14T09:47:55;94722.53;;;31.97;35.39
13314;BME280;6725;48.112;11.604;2022-08-14T09:50:22;94732.97;;;32.17;35.33
13314;BME280;6725;48.112;11.604;2022-08-14T09:52:59;94736.13;;;33.32;34.32
13314;BME280;6725;48.112;11.604;2022-08-14T09:55:28;94730.59;;;33.56;33.58
13314;BME280;6725;48.112;11.604;2022-08-14T09:58:14;94738.16;;;31.55;35.98
13314;BME280;6725;48.112;11.604;2022-08-14T10:00:55;94729.13;;;32.65;35.18
13314;BME280;6725;48.112;11.604;2022-08-14T10:03:32;94727.34;;;31.74;35.76
13314;BME280;6725;48.112;11.604;2022-08-14T10:13:44;94721.56;;;33.43;31.72
13314;BME280;6725;48.112;11.604;2022-08-14T10:16:10;94716.47;;;33.41;30.54
13314;BME280;6725;48.112;11.604;2022-08-14T10:18:36;94711.06;;;32.83;31.89
13314;BME280;6725;48.112;11.604;2022-08-14T10:21:03;94707.25;;;33.11;31.51
13314;BME280;6725;48.112;11.604;2022-08-14T10:23:45;94704.59;;;34.30;30.10
13314;BME280;6725;48.112;11.604;2022-08-14T10:26:17;94709.78;;;33.61;30.60
13314;BME280;6725;48.112;11.604;2022-08-14T10:28:45;94709.31;;;32.73;33.05
13314;BME280;6725;48.112;11.604;2022-08-14T10:34:05;94691.19;;;33.91;30.23
13314;BME280;6725;48.112;11.604;2022-08-14T10:36:39;94694.75;;;33.29;31.48
13314;BME280;6725;48.112;11.604;2022-08-14T10:39:17;94684.06;;;34.14;30.40
13314;BME280;6725;48.112;11.604;2022-08-14T10:41:43;94684.78;;;33.20;30.78
13314;BME280;6725;48.112;11.604;2022-08-14T10:44:17;94679.31;;;32.77;32.03
13314;BME280;6725;48.112;11.604;2022-08-14T10:46:52;94687.44;;;32.88;31.95
13314;BME280;6725;48.112;11.604;2022-08-14T10:49:23;94677.50;;;33.64;31.32
13314;BME280;6725;48.112;11.604;2022-08-14T10:52:08;94672.53;;;34.12;29.34
13314;BME280;6725;48.112;11.604;2022-08-14T10:54:45;94664.50;;;34.58;29.19
13314;BME280;6725;48.112;11.604;2022-08-14T10:59:48;94665.34;;;33.02;30.44
13314;BME280;6725;48.112;11.604;2022-08-14T11:02:22;94661.03;;;33.70;29.07
13314;BME280;6725;48.112;11.604;2022-08-14T11:05:16;94645.44;;;34.51;28.44
13314;BME280;6725;48.112;11.604;2022-08-14T11:10:22;94641.31;;;34.20;28.85
13314;BME280;6725;48.112;11.604;2022-08-14T11:12:51;94639.03;;;34.50;27.49
13314;BME280;6725;48.112;11.604;2022-08-14T11:15:20;94632.78;;;34.52;27.67
13314;BME280;6725;48.112;11.604;2022-08-14T11:17:46;94634.22;;;34.85;27.61
13314;BME280;6725;48.112;11.604;2022-08-14T11:20:19;94627.94;;;34.13;27.73
13314;BME280;6725;48.112;11.604;2022-08-14T11:22:50;94625.53;;;34.34;28.27
13314;BME280;6725;48.112;11.604;2022-08-14T11:25:17;94623.22;;;33.75;29.61
13314;BME280;6725;48.112;11.604;2022-08-14T11:27:43;94620.41;;;33.68;28.52
13314;BME280;6725;48.112;11.604;2022-08-14T11:30:13;94608.00;;;33.96;28.13
13314;BME280;6725;48.112;11.604;2022-08-14T11:32:46;94605.72;;;34.51;26.45
13314;BME280;6725;48.112;11.604;2022-08-14T11:35:20;94611.03;;;34.47;26.74
13314;BME280;6725;48.112;11.604;2022-08-14T11:37:55;94599.50;;;35.45;25.43
13314;BME280;6725;48.112;11.604;2022-08-14T11:40:24;94596.69;;;34.45;25.58
13314;BME280;6725;48.112;11.604;2022-08-14T11:42:51;94597.09;;;32.75;28.50
13314;BME280;6725;48.112;11.604;2022-08-14T11:45:28;94596.09;;;33.03;27.98
13314;BME280;6725;48.112;11.604;2022-08-14T11:48:20;94599.53;;;32.86;28.48
13314;BME280;6725;48.112;11.604;2022-08-14T11:50:47;94587.28;;;32.16;28.80
13314;BME280;6725;48.112;11.604;2022-08-14T11:53:25;94590.19;;;31.23;31.71
13314;BME280;6725;48.112;11.604;2022-08-14T11:56:04;94590.22;;;30.87;31.97
13314;BME280;6725;48.112;11.604;2022-08-14T11:58:36;94583.47;;;30.34;31.11
13314;BME280;6725;48.112;11.604;2022-08-14T12:01:05;94583.97;;;30.53;29.15
13314;BME280;6725;48.112;11.604;2022-08-14T12:06:04;94578.13;;;30.23;29.48
13314;BME280;6725;48.112;11.604;2022-08-14T12:08:33;94577.03;;;30.26;29.07
13314;BME280;6725;48.112;11.604;2022-08-14T12:10:59;94564.03;;;30.51;28.91
13314;BME280;6725;48.112;11.604;2022-08-14T12:13:27;94563.66;;;30.75;29.75
13314;BME280;6725;48.112;11.604;2022-08-14T12:16:05;94579.75;;;30.67;31.08
13314;BME280;6725;48.112;11.604;2022-08-14T12:18:37;94580.97;;;30.10;30.49
13314;BME280;6725;48.112;11.604;2022-08-14T12:21:21;94571.38;;;29.85;30.13
13314;BME280;6725;48.112;11.604;2022-08-14T12:24:08;94567.66;;;30.10;30.90
13314;BME280;6725;48.112;11.604;2022-08-14T12:26:34;94557.38;;;29.72;33.73
13314;BME280;6725;48.112;11.604;2022-08-14T12:29:14;94549.34;;;29.76;33.64
13314;BME280;6725;48.112;11.604;2022-08-14T12:31:42;94550.69;;;29.62;34.02
13314;BME280;6725;48.112;11.604;2022-08-14T12:34:11;94543.00;;;29.29;34.13
13314;BME280;6725;48.112;11.604;2022-08-14T12:36:37;94538.34;;;29.52;34.00
13314;BME280;6725;48.112;11.604;2022-08-14T12:39:15;94531.53;;;29.81;33.34
13314;BME280;6725;48.112;11.604;2022-08-14T12:41:48;94543.91;;;30.19;32.71
13314;BME280;6725;48.112;11.604;2022-08-14T12:44:17;94548.41;;;30.22;31.96
13314;BME280;6725;48.112;11.604;2022-08-14T12:47:04;94545.28;;;29.64;31.38
13314;BME280;6725;48.112;11.604;2022-08-14T12:49:30;94542.06;;;29.47;31.71
13314;BME280;6725;48.112;11.604;2022-08-14T12:51:57;94532.19;;;29.94;30.62
13314;BME280;6725;48.112;11.604;2022-08-14T12:54:23;94540.72;;;30.02;29.51
13314;BME280;6725;48.112;11.604;2022-08-14T12:56:48;94529.53;;;30.09;29.76
13314;BME280;6725;48.112;11.604;2022-08-14T12:59:14;94535.22;;;30.17;29.09
13314;BME280;6725;48.112;11.604;2022-08-14T13:01:41;94520.59;;;29.98;29.48
13314;BME280;6725;48.112;11.604;2022-08-14T13:06:37;94521.47;;;30.34;28.66
13314;BME280;6725;48.112;11.604;2022-08-14T13:09:07;94509.47;;;30.41;28.14
13314;BME280;6725;48.112;11.604;2022-08-14T13:11:45;94504.94;;;30.38;28.12
13314;BME280;6725;48.112;11.604;2022-08-14T13:14:12;94496.75;;;30.55;29.02
13314;BME280;6725;48.112;11.604;2022-08-14T13:16:40;94492.31;;;30.67;29.19
13314;BME280;6725;48.112;11.604;2022-08-14T13:19:10;94497.66;;;30.50;30.17
13314;BME280;6725;48.112;11.604;2022-08-14T13:21:38;94502.53;;;30.42;29.56
13314;BME280;6725;48.112;11.604;2022-08-14T13:24:05;94493.34;;;30.49;29.56
13314;BME280;6725;48.112;11.604;2022-08-14T13:26:33;94482.81;;;30.49;28.84
13314;BME280;6725;48.112;11.604;2022-08-14T13:29:00;94490.31;;;30.75;28.80
13314;BME280;6725;48.112;11.604;2022-08-14T13:31:27;94487.91;;;30.86;29.10
13314;BME280;6725;48.112;11.604;2022-08-14T13:33:55;94485.72;;;31.00;28.48
13314;BME280;6725;48.112;11.604;2022-08-14T13:36:21;94472.44;;;30.80;29.75
13314;BME280;6725;48.112;11.604;2022-08-14T13:38:50;94473.53;;;30.34;29.56
13314;BME280;6725;48.112;11.604;2022-08-14T13:41:17;94463.53;;;30.25;29.94